createdAt,value
2023-08-12T00:02:33.387Z,2.10
2023-08-12T00:07:44.483Z,2.22
2023-08-12T00:12:48.852Z,2.72
2023-08-12T00:17:54.565Z,2.55
2023-08-12T00:23:01.435Z,2.45
2023-08-12T00:28:07.787Z,2.85
2023-08-12T00:33:14.375Z,3.20
2023-08-12T00:38:21.983Z,2.42
2023-08-12T00:43:27.556Z,2.72
2023-08-12T00:48:33.038Z,2.72
2023-08-12T00:53:40.648Z,2.42
2023-08-12T00:58:49.417Z,2.38
2023-08-12T01:03:54.574Z,2.30
2023-08-12T01:09:02.939Z,2.65
2023-08-12T01:14:15.475Z,2.22
2023-08-12T01:19:32.630Z,2.83
2023-08-12T01:24:43.044Z,2.40
2023-08-12T01:29:52.274Z,2.30
2023-08-12T01:35:04.592Z,2.58
2023-08-12T01:40:16.828Z,2.60
2023-08-12T01:45:21.734Z,2.22
2023-08-12T01:50:30.554Z,2.88
2023-08-12T01:55:38.672Z,2.42
2023-08-12T02:00:45.009Z,2.42
2023-08-12T02:05:52.626Z,2.13
2023-08-12T02:11:00.868Z,2.47
2023-08-12T02:16:07.954Z,2.47
2023-08-12T02:21:12.801Z,2.60
2023-08-12T02:26:26.400Z,2.70
2023-08-12T02:31:33.611Z,2.50
2023-08-12T02:36:38.930Z,2.53
2023-08-12T02:41:52.018Z,2.70
2023-08-12T02:47:00.946Z,2.15
2023-08-12T02:52:11.002Z,2.63
2023-08-12T02:57:18.417Z,2.60
2023-08-12T03:02:23.069Z,2.58
2023-08-12T03:07:30.094Z,2.90
2023-08-12T03:12:41.446Z,2.55
2023-08-12T03:17:50.845Z,2.38
2023-08-12T03:22:57.209Z,2.40
2023-08-12T03:28:11.549Z,2.50
2023-08-12T03:33:17.417Z,2.78
2023-08-12T03:38:23.663Z,2.60
2023-08-12T03:43:32.171Z,2.60
2023-08-12T03:48:38.121Z,2.30
2023-08-12T03:53:44.898Z,2.28
2023-08-12T03:58:53.273Z,2.40
2023-08-12T04:04:00.844Z,2.38
2023-08-12T04:09:07.617Z,2.45
2023-08-12T04:14:14.419Z,2.20
2023-08-12T04:19:19.521Z,2.00
2023-08-12T04:24:24.305Z,2.55
2023-08-12T04:29:30.290Z,2.47
2023-08-12T04:34:36.691Z,2.35
2023-08-12T04:39:41.934Z,2.60
2023-08-12T04:44:52.095Z,2.65
2023-08-12T04:49:57.241Z,2.30
2023-08-12T04:55:02.441Z,2.50
2023-08-12T05:00:11.822Z,2.25
2023-08-12T05:05:17.035Z,2.20
2023-08-12T05:10:23.541Z,2.30
2023-08-12T05:15:30.959Z,2.40
2023-08-12T05:20:35.089Z,2.13
2023-08-12T05:25:42.300Z,2.00
2023-08-12T05:30:52.128Z,2.00
2023-08-12T05:35:59.142Z,1.75
2023-08-12T05:41:09.002Z,2.10
2023-08-12T05:46:18.753Z,2.47
2023-08-12T05:51:29.413Z,1.95
2023-08-12T05:56:39.119Z,2.25
2023-08-12T06:01:54.502Z,1.80
2023-08-12T06:07:00.308Z,2.33
2023-08-12T06:12:05.302Z,1.77
2023-08-12T06:17:15.036Z,2.20
2023-08-12T06:22:21.381Z,1.85
2023-08-12T06:27:26.554Z,2.00
2023-08-12T06:32:38.056Z,1.90
2023-08-12T06:37:43.061Z,1.90
2023-08-12T06:42:51.080Z,1.90
2023-08-12T06:48:07.208Z,2.00
2023-08-12T06:53:12.987Z,1.67
2023-08-12T06:58:19.344Z,2.00
2023-08-12T07:03:29.835Z,2.30
2023-08-12T07:08:34.917Z,1.65
2023-08-12T07:13:41.838Z,1.70
2023-08-12T07:18:50.155Z,1.90
2023-08-12T07:24:03.715Z,1.77
2023-08-12T07:29:21.538Z,2.20
2023-08-12T07:34:31.913Z,1.90
2023-08-12T07:39:40.014Z,2.00
2023-08-12T07:44:47.896Z,2.00
2023-08-12T07:50:06.937Z,3.35
2023-08-12T07:55:14.127Z,2.13
2023-08-12T08:00:22.270Z,1.80
2023-08-12T08:05:33.836Z,1.90
2023-08-12T08:10:44.793Z,1.80
2023-08-12T08:15:56.803Z,2.10
2023-08-12T08:21:09.808Z,1.95
2023-08-12T08:26:19.084Z,1.85
2023-08-12T08:31:24.934Z,1.92
2023-08-12T08:36:32.974Z,1.70
2023-08-12T08:41:41.494Z,2.15
2023-08-12T08:46:52.144Z,1.98
2023-08-12T08:52:00.192Z,2.00
2023-08-12T08:57:14.632Z,1.80
2023-08-12T09:02:22.130Z,2.15
2023-08-12T09:07:35.445Z,1.80
2023-08-12T09:12:39.722Z,1.95
2023-08-12T09:17:49.933Z,2.10
2023-08-12T09:23:14.479Z,1.83
2023-08-12T09:28:21.264Z,1.42
2023-08-12T09:33:29.550Z,1.63
2023-08-12T09:38:50.519Z,1.65
2023-08-12T09:43:58.824Z,2.22
2023-08-12T09:49:11.155Z,1.80
2023-08-12T09:54:21.971Z,1.80
2023-08-12T09:59:35.448Z,2.20
2023-08-12T10:04:44.915Z,2.30
2023-08-12T10:10:08.452Z,2.00
2023-08-12T10:15:42.125Z,1.83
2023-08-12T10:20:50.454Z,2.10
2023-08-12T10:26:16.102Z,1.85
2023-08-12T10:31:24.200Z,2.03
2023-08-12T10:36:52.362Z,2.25
2023-08-12T10:42:14.934Z,2.20
2023-08-12T10:47:26.926Z,2.30
2023-08-12T10:52:34.428Z,2.53
2023-08-12T11:03:23.209Z,2.50
2023-08-12T11:08:33.615Z,2.08
2023-08-12T11:13:52.193Z,2.50
2023-08-12T11:19:02.555Z,2.08
2023-08-12T11:24:14.624Z,2.15
2023-08-12T11:29:26.177Z,2.65
2023-08-12T11:34:35.548Z,2.58
2023-08-12T11:40:22.249Z,2.15
2023-08-12T11:45:31.425Z,2.05
2023-08-12T11:50:41.403Z,2.20
2023-08-12T11:55:59.048Z,1.63
2023-08-12T12:01:07.234Z,1.90
2023-08-12T12:06:16.930Z,1.80
2023-08-12T12:11:23.131Z,1.95
2023-08-12T12:16:41.998Z,1.65
2023-08-12T12:21:53.092Z,1.50
2023-08-12T12:26:59.936Z,1.70
2023-08-12T12:32:17.011Z,1.23
2023-08-12T12:37:23.798Z,1.40
2023-08-12T12:42:40.178Z,1.40
2023-08-12T12:47:48.568Z,1.50
2023-08-12T12:53:18.202Z,1.40
2023-08-12T12:58:25.583Z,1.73
2023-08-12T13:03:38.796Z,1.20
2023-08-12T13:08:44.467Z,1.27
2023-08-12T13:13:54.464Z,1.50
2023-08-12T13:19:01.381Z,1.67
2023-08-12T13:24:06.872Z,1.42
2023-08-12T13:29:11.461Z,1.27
2023-08-12T13:34:19.440Z,1.35
2023-08-12T13:39:32.657Z,1.40
2023-08-12T13:44:41.756Z,1.50
2023-08-12T13:49:53.914Z,1.30
2023-08-12T13:54:57.998Z,1.17
2023-08-12T14:00:01.440Z,1.33
2023-08-12T14:05:07.181Z,1.20
2023-08-12T14:10:11.012Z,1.20
2023-08-12T14:15:14.316Z,1.33
2023-08-12T14:20:20.163Z,1.52
2023-08-12T14:25:23.703Z,1.50
2023-08-12T14:30:28.546Z,1.50
2023-08-12T14:35:33.622Z,1.00
2023-08-12T14:40:37.035Z,1.42
2023-08-12T14:45:40.884Z,1.52
2023-08-12T14:50:45.827Z,1.50
2023-08-12T14:55:49.313Z,1.70
2023-08-12T15:00:52.613Z,1.60
2023-08-12T15:06:04.951Z,1.63
2023-08-12T15:11:08.702Z,1.50
2023-08-12T15:16:12.785Z,2.50
2023-08-12T15:21:20.924Z,1.70
2023-08-12T15:26:25.245Z,1.80
2023-08-12T15:31:29.172Z,2.00
2023-08-12T15:36:36.599Z,1.60
2023-08-12T15:41:46.256Z,2.42
2023-08-12T15:46:50.353Z,3.03
2023-08-12T15:51:55.149Z,2.25
2023-08-12T15:56:58.591Z,2.38
2023-08-12T16:02:02.531Z,2.45
2023-08-12T16:07:07.552Z,2.45
2023-08-12T16:12:11.819Z,3.00
2023-08-12T16:17:15.846Z,3.08
2023-08-12T16:22:20.620Z,2.60
2023-08-12T16:27:23.767Z,2.80
2023-08-12T16:32:27.066Z,2.70
2023-08-12T16:37:31.763Z,2.65
2023-08-12T16:42:35.113Z,2.70
2023-08-12T16:47:38.217Z,2.88
2023-08-12T16:52:42.849Z,2.67
2023-08-12T16:57:46.250Z,3.50
2023-08-12T17:02:49.460Z,3.25
2023-08-12T17:07:54.189Z,3.60
2023-08-12T17:12:57.503Z,3.63
2023-08-12T17:18:01.811Z,3.58
2023-08-12T17:23:07.671Z,3.20
2023-08-12T17:28:10.819Z,3.35
2023-08-12T17:33:14.308Z,3.25
2023-08-12T17:38:18.943Z,2.95
2023-08-12T17:43:31.251Z,3.47
2023-08-12T17:48:34.677Z,2.88
2023-08-12T17:53:39.579Z,2.90
2023-08-12T17:58:43.691Z,2.95
2023-08-12T18:03:46.987Z,2.92
2023-08-12T18:08:51.971Z,3.30
2023-08-12T18:13:59.350Z,3.05
2023-08-12T18:19:02.879Z,2.80
2023-08-12T18:24:08.083Z,2.88
2023-08-12T18:29:11.964Z,2.85
2023-08-12T18:34:15.584Z,3.03
2023-08-12T18:39:20.207Z,2.80
2023-08-12T18:44:23.654Z,3.20
2023-08-12T18:49:26.996Z,2.80
2023-08-12T18:54:31.748Z,2.88
2023-08-12T18:59:35.040Z,2.88
2023-08-12T19:04:38.369Z,2.83
2023-08-12T19:09:42.969Z,2.70
2023-08-12T19:14:47.919Z,3.03
2023-08-12T19:19:55.719Z,2.95
2023-08-12T19:25:00.474Z,2.50
2023-08-12T19:30:04.709Z,2.53
2023-08-12T19:35:08.533Z,2.30
2023-08-12T19:40:15.648Z,2.72
2023-08-12T19:45:20.320Z,3.38
2023-08-12T19:50:23.735Z,5.80
2023-08-12T19:55:28.277Z,8.27
2023-08-12T20:00:31.593Z,3.90
2023-08-12T20:05:34.961Z,2.47
2023-08-12T20:10:40.257Z,3.17
2023-08-12T20:15:43.784Z,4.47
2023-08-12T20:20:49.410Z,3.28
2023-08-12T20:25:59.513Z,5.90
2023-08-12T20:31:02.725Z,3.22
2023-08-12T20:36:07.848Z,2.50
2023-08-12T20:41:12.516Z,2.20
2023-08-12T20:46:15.876Z,2.50
2023-08-12T20:51:19.505Z,2.90
2023-08-12T20:56:24.229Z,2.80
2023-08-12T21:01:27.897Z,2.35
2023-08-12T21:06:31.330Z,2.85
2023-08-12T21:11:35.971Z,2.53
2023-08-12T21:16:39.409Z,2.80
2023-08-12T21:21:42.882Z,2.80
2023-08-12T21:26:47.521Z,3.50
2023-08-12T21:31:51.039Z,2.60
2023-08-12T21:36:54.496Z,2.78
2023-08-12T21:41:59.173Z,2.72
2023-08-12T21:47:02.312Z,2.80
2023-08-12T21:52:05.728Z,2.40
2023-08-12T21:57:11.740Z,2.80
2023-08-12T22:02:28.348Z,2.13
2023-08-12T22:07:31.845Z,2.20
2023-08-12T22:12:36.704Z,2.30
2023-08-12T22:17:41.493Z,2.65
2023-08-12T22:22:45.337Z,2.30
2023-08-12T22:27:50.341Z,2.63
2023-08-12T22:32:53.747Z,2.45
2023-08-12T22:37:57.405Z,3.30
2023-08-12T22:43:02.364Z,2.20
2023-08-12T22:48:06.212Z,2.10
2023-08-12T22:53:09.587Z,2.33
2023-08-12T22:58:14.121Z,2.20
2023-08-12T23:03:17.550Z,2.45
2023-08-12T23:08:20.931Z,2.53
2023-08-12T23:13:25.886Z,2.30
2023-08-12T23:18:29.456Z,2.58
2023-08-12T23:23:32.909Z,2.10
2023-08-12T23:28:37.852Z,2.78
2023-08-12T23:33:41.563Z,2.30
2023-08-12T23:38:44.803Z,2.65
2023-08-12T23:43:49.421Z,2.33
2023-08-12T23:48:52.752Z,2.10
2023-08-12T23:53:55.981Z,2.03
2023-08-12T23:59:01.197Z,1.98
